createdAt,value
2023-03-10T00:47:37.350Z,4.15
2023-03-10T00:48:36.798Z,4.15
2023-03-10T00:49:36.776Z,4.18
2023-03-10T00:50:36.773Z,4.21
2023-03-10T00:51:36.780Z,4.21
2023-03-10T00:52:36.759Z,4.22
2023-03-10T00:53:36.792Z,4.22
2023-03-10T00:58:56.784Z,4.29
2023-03-10T00:59:49.347Z,4.28
2023-03-10T01:00:36.760Z,4.32
2023-03-10T01:01:36.806Z,4.33
2023-03-10T01:02:36.727Z,4.36
2023-03-10T01:03:57.783Z,4.37
2023-03-10T01:04:36.703Z,4.42
2023-03-10T01:05:36.684Z,4.44
2023-03-10T01:06:36.677Z,4.44
2023-03-10T01:07:36.861Z,4.46
2023-03-10T01:08:39.638Z,4.47
2023-03-10T01:09:36.685Z,4.47
2023-03-10T01:10:57.641Z,4.47
2023-03-10T01:11:36.593Z,4.54
2023-03-10T01:12:57.711Z,4.55
2023-03-10T01:13:36.586Z,4.55
2023-03-10T01:14:36.565Z,4.57
2023-03-10T01:15:36.574Z,4.57
2023-03-10T01:16:36.531Z,4.61
2023-03-10T01:17:36.520Z,4.65
2023-03-10T01:18:36.682Z,4.64
2023-03-10T01:19:36.500Z,4.65
2023-03-10T01:20:36.464Z,4.67
2023-03-10T01:21:39.432Z,4.65
2023-03-10T01:22:36.452Z,4.67
2023-03-10T01:23:36.487Z,4.72
2023-03-10T01:24:36.442Z,4.70
2023-03-10T01:25:36.420Z,4.76
2023-03-10T01:26:36.619Z,4.73
2023-03-10T01:27:36.388Z,4.73
2023-03-10T01:28:36.392Z,4.77
2023-03-10T01:29:36.376Z,4.77
2023-03-10T01:30:36.345Z,4.80
2023-03-10T01:31:36.429Z,4.79
2023-03-10T01:32:36.367Z,4.83
2023-03-10T01:33:36.330Z,4.86
2023-03-10T01:34:36.309Z,4.84
2023-03-10T01:35:36.321Z,4.86
2023-03-10T01:36:36.281Z,4.86
2023-03-10T01:37:36.248Z,4.89
2023-03-10T01:38:36.265Z,4.91
2023-03-10T01:39:36.227Z,4.95
2023-03-10T01:40:36.416Z,4.96
2023-03-10T01:41:36.200Z,4.95
2023-03-10T01:42:36.222Z,4.95
2023-03-10T01:43:36.194Z,4.98
2023-03-10T01:44:36.195Z,4.96
2023-03-10T01:45:36.147Z,4.95
2023-03-10T01:46:36.301Z,5.01
2023-03-10T01:47:36.141Z,5.02
2023-03-10T01:48:36.163Z,5.04
2023-03-10T01:49:36.127Z,5.05
2023-03-10T01:50:36.109Z,5.09
2023-03-10T01:51:36.071Z,5.10
2023-03-10T01:52:36.068Z,5.13
2023-03-10T01:53:36.052Z,5.16
2023-03-10T01:54:36.058Z,5.25
2023-03-10T01:55:36.014Z,5.32
2023-03-10T01:56:36.016Z,5.41
2023-03-10T01:57:35.984Z,5.55
2023-03-10T01:58:36.027Z,5.70
2023-03-10T01:59:35.964Z,5.96
2023-03-10T02:00:36.022Z,6.18
2023-03-10T02:01:35.967Z,6.50
2023-03-10T02:02:35.919Z,6.72
2023-03-10T02:03:35.916Z,6.94
2023-03-10T02:04:35.911Z,7.13
2023-03-10T02:05:35.888Z,7.19
2023-03-10T02:06:35.861Z,7.26
2023-03-10T02:07:35.857Z,7.24
2023-03-10T02:08:35.854Z,7.27
2023-03-10T02:09:35.837Z,7.23
2023-03-10T02:10:38.921Z,7.19
2023-03-10T02:11:35.795Z,7.07
2023-03-10T02:12:35.787Z,6.99
2023-03-10T02:13:35.778Z,6.90
2023-03-10T02:14:35.762Z,6.80
2023-03-10T02:15:35.743Z,6.66
2023-03-10T02:16:35.775Z,6.63
2023-03-10T02:17:35.741Z,6.59
2023-03-10T02:18:35.716Z,6.53
2023-03-10T02:19:35.739Z,6.48
2023-03-10T02:20:35.679Z,6.46
2023-03-10T02:21:35.662Z,6.41
2023-03-10T02:22:35.668Z,6.38
2023-03-10T02:23:35.649Z,6.38
2023-03-10T02:24:35.636Z,6.33
2023-03-10T02:25:35.624Z,6.33
2023-03-10T02:26:35.614Z,6.28
2023-03-10T02:27:35.595Z,6.28
2023-03-10T02:28:35.594Z,6.22
2023-03-10T02:29:38.445Z,6.28
2023-03-10T02:30:35.566Z,6.25
2023-03-10T02:31:35.610Z,6.26
2023-03-10T02:32:35.576Z,6.22
2023-03-10T02:33:35.560Z,6.21
2023-03-10T02:34:35.498Z,6.18
2023-03-10T02:35:35.555Z,6.14
2023-03-10T02:36:35.482Z,6.16
2023-03-10T02:37:35.464Z,6.16
2023-03-10T02:38:35.483Z,6.18
2023-03-10T02:39:35.430Z,6.14
2023-03-10T02:40:35.424Z,6.13
2023-03-10T02:41:35.410Z,6.10
2023-03-10T02:42:35.438Z,6.11
2023-03-10T02:43:35.366Z,6.11
2023-03-10T02:44:35.416Z,6.10
2023-03-10T02:45:35.448Z,6.07
2023-03-10T02:46:35.381Z,6.07
2023-03-10T02:47:35.318Z,6.04
2023-03-10T02:48:35.348Z,6.06
2023-03-10T02:49:35.302Z,6.03
2023-03-10T02:50:35.293Z,6.03
2023-03-10T02:51:35.299Z,6.01
2023-03-10T02:52:35.262Z,6.00
2023-03-10T02:53:35.284Z,5.96
2023-03-10T02:54:35.240Z,5.96
2023-03-10T02:55:35.234Z,5.96
2023-03-10T02:56:35.250Z,5.93
2023-03-10T02:57:35.191Z,5.95
2023-03-10T02:58:35.177Z,5.93
2023-03-10T02:59:35.231Z,5.92
2023-03-10T03:00:35.162Z,5.91
2023-03-10T03:01:35.247Z,5.93
2023-03-10T03:02:35.121Z,5.95
2023-03-10T03:03:35.137Z,5.91
2023-03-10T03:04:35.100Z,5.95
2023-03-10T03:05:35.077Z,5.95
2023-03-10T03:06:35.068Z,5.95
2023-03-10T03:07:35.058Z,5.92
2023-03-10T03:08:35.042Z,5.93
2023-03-10T03:09:35.023Z,5.93
2023-03-10T03:10:35.012Z,5.96
2023-03-10T03:11:34.990Z,5.93
2023-03-10T03:12:34.989Z,5.96
2023-03-10T03:13:34.973Z,5.96
2023-03-10T03:14:34.972Z,5.95
2023-03-10T03:15:34.946Z,5.98
2023-03-10T03:16:34.975Z,5.96
2023-03-10T03:17:34.929Z,5.98
2023-03-10T03:18:34.909Z,5.98
2023-03-10T03:19:34.900Z,6.00
2023-03-10T03:20:34.883Z,5.98
2023-03-10T03:21:34.861Z,6.00
2023-03-10T03:22:34.855Z,5.95
2023-03-10T03:23:34.848Z,5.96
2023-03-10T03:24:34.838Z,5.98
2023-03-10T03:25:34.893Z,5.95
2023-03-10T03:26:34.804Z,5.95
2023-03-10T03:27:34.790Z,5.93
2023-03-10T03:28:34.791Z,5.96
2023-03-10T03:29:34.770Z,5.96
2023-03-10T03:30:34.748Z,5.95
2023-03-10T03:31:34.794Z,5.96
2023-03-10T03:32:34.786Z,5.96
2023-03-10T03:33:34.707Z,5.96
2023-03-10T03:34:34.714Z,5.95
2023-03-10T03:35:34.746Z,5.95
2023-03-10T03:36:34.689Z,5.96
2023-03-10T03:37:34.658Z,5.98
2023-03-10T03:38:34.661Z,6.01
2023-03-10T03:39:34.732Z,5.98
2023-03-10T03:40:34.683Z,5.98
2023-03-10T03:41:34.607Z,6.01
2023-03-10T03:42:34.688Z,5.98
2023-03-10T03:43:34.635Z,5.98
2023-03-10T03:44:34.627Z,6.00
2023-03-10T03:45:34.547Z,5.98
2023-03-10T03:46:34.642Z,6.00
2023-03-10T03:47:34.533Z,6.01
2023-03-10T03:48:34.558Z,6.03
2023-03-10T03:49:34.542Z,6.06
2023-03-10T03:50:34.536Z,6.04
2023-03-10T03:51:34.490Z,6.01
2023-03-10T03:52:34.482Z,6.04
2023-03-10T03:53:34.440Z,6.03
2023-03-10T03:54:34.475Z,6.07
2023-03-10T03:55:34.423Z,6.04
2023-03-10T03:56:34.427Z,6.09
2023-03-10T03:57:34.393Z,6.06
2023-03-10T03:58:34.399Z,6.10
2023-03-10T03:59:34.388Z,6.07
2023-03-10T04:00:34.367Z,6.07
2023-03-10T04:01:34.349Z,6.11
2023-03-10T04:02:34.417Z,6.10
2023-03-10T04:03:34.363Z,6.07
2023-03-10T04:04:34.331Z,6.10
2023-03-10T04:05:34.281Z,6.10
2023-03-10T04:06:34.279Z,6.09
2023-03-10T04:07:34.259Z,6.11
2023-03-10T04:08:34.276Z,6.10
2023-03-10T04:09:34.248Z,6.09
2023-03-10T04:10:34.238Z,6.10
2023-03-10T04:11:34.218Z,6.09
2023-03-10T04:12:34.206Z,6.09
2023-03-10T04:13:34.186Z,6.10
2023-03-10T04:14:34.179Z,6.10
2023-03-10T04:15:34.176Z,6.09
2023-03-10T04:16:34.156Z,6.10
2023-03-10T04:17:34.124Z,6.13
2023-03-10T04:18:34.117Z,6.11
2023-03-10T04:19:34.111Z,6.10
2023-03-10T04:20:34.206Z,6.10
2023-03-10T04:21:34.089Z,6.13
2023-03-10T04:22:34.118Z,6.13
2023-03-10T04:23:34.054Z,6.13
2023-03-10T04:24:34.072Z,6.13
2023-03-10T04:25:34.033Z,6.14
2023-03-10T04:26:34.020Z,6.16
2023-03-10T04:27:34.000Z,6.16
2023-03-10T04:28:34.021Z,6.13
2023-03-10T04:29:33.979Z,6.14
2023-03-10T04:30:34.002Z,6.16
2023-03-10T04:31:34.075Z,6.16
2023-03-10T04:32:34.005Z,6.19
2023-03-10T04:33:33.917Z,6.18
2023-03-10T04:34:33.931Z,6.22
2023-03-10T04:35:33.957Z,6.22
2023-03-10T04:36:33.925Z,6.25
2023-03-10T04:37:33.871Z,6.21
2023-03-10T04:38:33.872Z,6.22
2023-03-10T04:39:33.865Z,6.19
2023-03-10T04:40:33.853Z,6.21
2023-03-10T04:41:33.832Z,6.21
2023-03-10T04:42:33.956Z,6.21
2023-03-10T04:43:33.784Z,6.22
2023-03-10T04:44:33.776Z,6.22
2023-03-10T04:45:33.784Z,6.26
2023-03-10T04:46:33.860Z,6.28
2023-03-10T04:47:33.733Z,6.26
2023-03-10T04:48:33.722Z,6.28
2023-03-10T04:49:33.709Z,6.28
2023-03-10T04:50:33.713Z,6.26
2023-03-10T04:51:33.683Z,6.25
2023-03-10T04:52:33.681Z,6.22
2023-03-10T04:53:33.652Z,6.18
2023-03-10T04:54:33.662Z,6.11
2023-03-10T04:55:33.660Z,6.11
2023-03-10T04:56:33.612Z,6.09
2023-03-10T04:57:33.601Z,6.03
2023-03-10T04:58:33.583Z,5.98
2023-03-10T04:59:33.595Z,5.91
2023-03-10T05:00:33.605Z,5.92
2023-03-10T05:01:33.615Z,5.89
2023-03-10T05:02:33.543Z,5.89
2023-03-10T05:03:33.526Z,5.83
2023-03-10T05:04:33.520Z,5.83
2023-03-10T05:05:35.782Z,5.82
2023-03-10T05:06:33.497Z,5.83
2023-03-10T05:07:33.476Z,5.82
2023-03-10T05:08:33.455Z,5.78
2023-03-10T05:09:33.444Z,5.77
2023-03-10T05:10:33.445Z,5.75
2023-03-10T05:11:33.407Z,5.75
2023-03-10T05:12:33.405Z,5.73
2023-03-10T05:13:33.391Z,5.71
2023-03-10T05:14:33.397Z,5.67
2023-03-10T05:15:33.389Z,5.67
2023-03-10T05:16:33.441Z,5.67
2023-03-10T05:17:33.331Z,5.66
2023-03-10T05:18:33.335Z,5.64
2023-03-10T05:19:33.314Z,5.63
2023-03-10T05:20:33.309Z,5.57
2023-03-10T05:21:33.558Z,5.59
2023-03-10T05:22:33.286Z,5.57
2023-03-10T05:23:33.254Z,5.55
2023-03-10T05:24:33.246Z,5.56
2023-03-10T05:25:33.238Z,5.57
2023-03-10T05:26:34.908Z,5.53
2023-03-10T05:27:33.201Z,5.50
2023-03-10T05:28:33.189Z,5.46
2023-03-10T05:29:33.179Z,5.41
2023-03-10T05:30:33.214Z,5.40
2023-03-10T05:31:33.253Z,5.40
2023-03-10T05:32:33.158Z,5.41
2023-03-10T05:33:33.126Z,5.40
2023-03-10T05:34:33.128Z,5.43
2023-03-10T05:35:33.165Z,5.40
2023-03-10T05:36:33.114Z,5.40
2023-03-10T05:37:33.075Z,5.38
2023-03-10T05:38:33.078Z,5.40
2023-03-10T05:39:33.070Z,5.43
2023-03-10T05:40:33.065Z,5.41
2023-03-10T05:41:33.025Z,5.43
2023-03-10T05:42:33.040Z,5.45
2023-03-10T05:43:32.987Z,5.45
2023-03-10T05:44:32.989Z,5.43
2023-03-10T05:45:32.960Z,5.37
2023-03-10T05:46:33.016Z,5.41
2023-03-10T05:47:32.938Z,5.35
2023-03-10T05:48:32.938Z,5.35
2023-03-10T05:49:32.930Z,5.35
2023-03-10T05:50:32.895Z,5.32
2023-03-10T05:51:32.892Z,5.27
2023-03-10T05:52:32.878Z,5.22
2023-03-10T05:53:32.859Z,5.19
2023-03-10T05:54:32.845Z,5.20
2023-03-10T05:55:32.874Z,5.19
2023-03-10T05:56:32.852Z,5.16
2023-03-10T05:57:32.836Z,5.19
2023-03-10T05:58:32.806Z,5.20
2023-03-10T05:59:32.853Z,5.19
2023-03-10T06:00:32.771Z,5.20
2023-03-10T06:01:32.835Z,5.19
2023-03-10T06:02:32.753Z,5.17
2023-03-10T06:03:32.884Z,5.14
2023-03-10T06:04:32.712Z,5.16
2023-03-10T06:06:48.451Z,5.12
2023-03-10T06:07:49.449Z,5.12
2023-03-10T06:08:49.446Z,5.13
2023-03-10T06:09:49.407Z,5.10
2023-03-10T06:10:51.124Z,5.07
2023-03-10T06:11:49.394Z,5.04
2023-03-10T06:12:49.367Z,5.04
2023-03-10T06:13:49.355Z,4.99
2023-03-10T06:14:49.360Z,4.98
2023-03-10T06:15:49.329Z,4.99
2023-03-10T06:16:49.417Z,4.96
2023-03-10T06:17:49.314Z,4.94
2023-03-10T06:18:49.312Z,4.94
2023-03-10T06:19:49.307Z,4.91
2023-03-10T06:21:12.532Z,4.94
2023-03-10T06:21:49.307Z,4.96
2023-03-10T06:22:49.246Z,4.92
2023-03-10T06:23:49.227Z,4.95
2023-03-10T06:24:49.214Z,4.94
2023-03-10T06:25:49.214Z,4.94
2023-03-10T06:26:49.214Z,4.94
2023-03-10T06:29:00.290Z,4.92
2023-03-10T06:30:01.380Z,4.92
2023-03-10T06:31:01.266Z,-39.78
2023-03-10T06:32:01.323Z,-39.78
2023-03-10T06:33:01.284Z,-39.78
2023-03-10T06:34:04.257Z,-39.78
2023-03-10T06:35:01.198Z,-39.78
2023-03-10T06:36:01.267Z,-39.78
2023-03-10T06:37:01.247Z,-39.78
2023-03-10T06:38:01.170Z,-39.78
2023-03-10T06:39:01.147Z,-39.78
2023-03-10T06:40:01.123Z,-39.78
2023-03-10T06:41:01.127Z,-39.78
2023-03-10T06:42:01.116Z,-39.78
2023-03-10T06:43:01.113Z,-39.78
2023-03-10T06:44:01.077Z,-39.78
2023-03-10T06:45:01.109Z,-39.78
2023-03-10T06:46:01.117Z,-39.78
2023-03-10T06:47:01.073Z,-39.78
2023-03-10T06:48:01.059Z,-39.78
2023-03-10T06:49:01.024Z,-39.78
2023-03-10T06:50:00.996Z,-39.78
2023-03-10T06:51:00.989Z,-39.78
2023-03-10T06:52:01.000Z,-39.78
2023-03-10T06:53:00.968Z,-39.78
2023-03-10T06:54:00.959Z,-39.78
2023-03-10T06:55:00.948Z,-39.78
2023-03-10T06:56:00.934Z,-39.78
2023-03-10T06:57:00.937Z,-39.78
2023-03-10T06:58:00.891Z,-39.78
2023-03-10T06:59:00.908Z,-39.78
2023-03-10T07:00:00.863Z,-39.78
2023-03-10T07:01:00.895Z,-39.78
2023-03-10T07:02:00.872Z,-39.78
2023-03-10T07:03:00.851Z,-39.78
2023-03-10T07:04:00.819Z,-39.78
2023-03-10T07:05:00.896Z,-39.78
2023-03-10T07:06:00.816Z,-39.78
2023-03-10T07:07:00.799Z,-39.78
2023-03-10T07:08:00.781Z,-39.78
2023-03-10T07:09:00.760Z,-39.78
2023-03-10T07:10:00.734Z,-39.78
2023-03-10T07:11:00.759Z,-39.78
2023-03-10T07:12:00.712Z,-39.78
2023-03-10T07:13:00.760Z,-39.78
2023-03-10T07:14:00.691Z,-39.78
2023-03-10T07:15:00.721Z,-39.78
2023-03-10T07:16:00.656Z,-39.78
2023-03-10T07:17:00.723Z,-39.78
2023-03-10T07:18:00.645Z,-39.78
2023-03-10T07:19:00.670Z,-39.78
2023-03-10T07:20:00.595Z,-39.78
2023-03-10T07:21:00.586Z,-39.78
2023-03-10T07:22:00.578Z,-39.78
2023-03-10T07:23:00.621Z,-39.78
2023-03-10T07:24:00.549Z,-39.78
2023-03-10T07:25:00.535Z,-39.78
2023-03-10T07:26:00.519Z,-39.78
2023-03-10T07:27:00.534Z,-39.78
2023-03-10T07:28:00.507Z,-39.78
2023-03-10T07:29:00.482Z,-39.78
2023-03-10T07:30:00.467Z,-39.78
2023-03-10T07:31:00.543Z,-39.78
2023-03-10T07:32:00.462Z,-39.78
2023-03-10T07:33:00.555Z,-39.78
2023-03-10T07:34:00.437Z,-39.78
2023-03-10T07:35:00.396Z,-39.78
2023-03-10T07:36:00.469Z,-39.78
2023-03-10T07:37:00.412Z,-39.78
2023-03-10T07:38:00.393Z,-39.78
2023-03-10T07:39:00.364Z,-39.78
2023-03-10T07:40:00.341Z,-39.78
2023-03-10T07:41:01.980Z,-39.78
2023-03-10T07:42:00.346Z,-39.78
2023-03-10T07:43:00.312Z,-39.78
2023-03-10T07:44:00.297Z,-39.78
2023-03-10T07:45:00.272Z,-39.78
2023-03-10T07:46:00.399Z,-39.78
2023-03-10T07:47:00.263Z,-39.78
2023-03-10T07:48:00.282Z,-39.78
2023-03-10T07:49:00.211Z,-39.78
2023-03-10T07:50:00.204Z,-39.78
2023-03-10T07:51:00.218Z,-39.78
2023-03-10T07:52:00.176Z,-39.78
2023-03-10T07:53:00.189Z,-39.78
2023-03-10T07:54:00.146Z,-39.78
2023-03-10T07:55:00.157Z,-39.78
2023-03-10T07:56:00.145Z,-39.78
2023-03-10T07:57:00.116Z,-39.78
2023-03-10T07:58:00.127Z,-39.78
2023-03-10T07:59:00.123Z,-39.78
2023-03-10T08:00:00.085Z,-39.78
2023-03-10T08:01:00.194Z,-39.78
2023-03-10T08:02:00.129Z,-39.78
2023-03-10T08:03:00.035Z,-39.78
2023-03-10T08:04:00.201Z,-39.78
2023-03-10T08:05:00.082Z,-39.78
2023-03-10T08:06:00.006Z,-39.78
2023-03-10T08:06:59.997Z,-39.78
2023-03-10T08:07:59.964Z,-39.78
2023-03-10T08:08:59.972Z,-39.78
2023-03-10T08:09:59.948Z,-39.78
2023-03-10T08:10:59.966Z,-39.78
2023-03-10T08:11:59.921Z,-39.78
2023-03-10T08:12:59.905Z,-39.78
2023-03-10T08:13:59.998Z,-39.78
2023-03-10T08:14:59.880Z,-39.78
2023-03-10T08:15:59.885Z,-39.78
2023-03-10T08:16:59.851Z,-39.78
2023-03-10T08:17:59.854Z,-39.78
2023-03-10T08:18:59.853Z,-39.78
2023-03-10T08:19:59.815Z,-39.78
2023-03-10T08:20:59.806Z,-39.78
2023-03-10T08:21:59.781Z,-39.78
2023-03-10T08:22:59.780Z,-39.78
2023-03-10T08:23:59.775Z,-39.78
2023-03-10T08:24:59.745Z,-39.78
2023-03-10T08:25:59.727Z,-39.78
2023-03-10T08:26:59.732Z,-39.78
2023-03-10T08:27:59.737Z,-39.78
2023-03-10T08:28:59.695Z,-39.78
2023-03-10T08:29:59.663Z,-39.78
2023-03-10T08:31:04.659Z,-39.78
2023-03-10T08:31:59.718Z,-39.78
2023-03-10T08:32:59.741Z,-39.78
2023-03-10T08:34:00.807Z,-39.78
2023-03-10T08:34:59.676Z,-39.78
2023-03-10T08:35:59.639Z,-39.78
2023-03-10T08:36:59.589Z,-39.78
2023-03-10T08:37:59.589Z,-39.78
2023-03-10T08:39:30.313Z,4.72
2023-03-10T08:40:31.282Z,4.73
2023-03-10T08:41:31.275Z,4.76
2023-03-10T08:42:31.260Z,4.76
2023-03-10T08:43:31.286Z,4.79
2023-03-10T08:44:31.240Z,4.80
2023-03-10T08:45:31.236Z,4.88
2023-03-10T08:46:31.285Z,4.89
2023-03-10T08:47:32.512Z,4.89
2023-03-10T08:48:31.177Z,4.91
2023-03-10T08:49:31.229Z,4.91
2023-03-10T08:50:31.153Z,4.91
2023-03-10T08:51:31.199Z,4.89
2023-03-10T08:52:31.123Z,4.91
2023-03-10T08:53:31.128Z,4.92
2023-03-10T08:54:32.593Z,4.94
2023-03-10T08:55:31.092Z,4.98
2023-03-10T08:56:31.070Z,4.98
2023-03-10T08:57:31.110Z,4.99
2023-03-10T08:58:31.053Z,4.99
2023-03-10T08:59:31.084Z,4.96
2023-03-10T09:00:31.052Z,4.98
2023-03-10T09:01:31.093Z,4.99
2023-03-10T09:02:30.988Z,5.01
2023-03-10T09:03:31.882Z,5.05
2023-03-10T09:04:30.993Z,5.09
2023-03-10T09:05:30.959Z,5.16
2023-03-10T09:06:30.962Z,5.20
2023-03-10T09:07:30.989Z,5.22
2023-03-10T09:08:30.918Z,5.23
2023-03-10T09:09:30.916Z,5.23
2023-03-10T09:10:30.885Z,5.27
2023-03-10T09:11:30.881Z,5.31
2023-03-10T09:12:35.574Z,5.31
2023-03-10T09:13:30.872Z,5.40
2023-03-10T09:14:30.842Z,5.37
2023-03-10T09:15:30.823Z,5.38
2023-03-10T09:16:30.892Z,5.41
2023-03-10T09:17:30.815Z,5.41
2023-03-10T09:18:30.788Z,5.40
2023-03-10T09:19:30.821Z,5.38
2023-03-10T09:20:30.754Z,5.38
2023-03-10T09:21:33.426Z,5.37
2023-03-10T09:22:30.735Z,5.31
2023-03-10T09:23:30.760Z,5.32
2023-03-10T09:24:30.733Z,5.32
2023-03-10T09:25:30.690Z,5.34
2023-03-10T09:26:30.686Z,5.34
2023-03-10T09:27:30.725Z,5.35
2023-03-10T09:28:30.664Z,5.40
2023-03-10T09:29:42.545Z,5.38
2023-03-10T09:30:30.647Z,5.40
2023-03-10T09:31:30.652Z,5.41
2023-03-10T09:32:30.608Z,5.37
2023-03-10T09:33:30.622Z,5.38
2023-03-10T09:34:30.615Z,5.37
2023-03-10T09:35:30.594Z,5.38
2023-03-10T09:36:30.592Z,5.40
2023-03-10T09:37:30.535Z,5.41
2023-03-10T09:38:30.509Z,5.41
2023-03-10T09:39:30.571Z,5.45
2023-03-10T09:40:30.485Z,5.43
2023-03-10T09:41:32.252Z,5.48
2023-03-10T09:42:37.994Z,5.52
2023-03-10T09:43:30.461Z,5.55
2023-03-10T09:44:30.464Z,5.57
2023-03-10T09:45:30.516Z,5.55
2023-03-10T09:46:52.503Z,5.55
2023-03-10T09:47:30.460Z,5.56
2023-03-10T09:48:30.397Z,5.56
2023-03-10T09:49:30.379Z,5.49
2023-03-10T09:50:30.360Z,5.55
2023-03-10T09:51:30.346Z,5.53
2023-03-10T09:52:30.405Z,5.59
2023-03-10T09:53:30.306Z,5.60
2023-03-10T09:54:30.304Z,5.68
2023-03-10T09:55:30.291Z,5.73
2023-03-10T09:56:30.273Z,5.70
2023-03-10T10:10:50.196Z,6.03
2023-03-10T10:11:49.493Z,6.11
2023-03-10T10:12:49.472Z,6.21
2023-03-10T10:13:49.466Z,6.30
2023-03-10T10:14:57.230Z,6.32
2023-03-10T10:15:51.264Z,6.33
2023-03-10T10:16:49.456Z,6.32
2023-03-10T10:17:55.088Z,6.30
2023-03-10T10:18:49.467Z,6.18
2023-03-10T10:19:49.393Z,6.19
2023-03-10T10:20:49.396Z,6.18
2023-03-10T10:21:49.374Z,6.22
2023-03-10T10:22:49.373Z,6.26
2023-03-10T10:23:49.375Z,6.22
2023-03-10T10:24:49.408Z,6.26
2023-03-10T10:25:50.466Z,6.25
2023-03-10T10:26:49.312Z,6.21
2023-03-10T10:27:49.285Z,6.21
2023-03-10T10:28:50.890Z,6.18
2023-03-10T10:29:49.242Z,6.16
2023-03-10T10:30:51.286Z,6.11
2023-03-10T10:31:49.246Z,6.10
2023-03-10T10:32:49.255Z,6.07
2023-03-10T10:33:49.245Z,6.06
2023-03-10T10:35:10.178Z,6.04
2023-03-10T10:35:49.291Z,6.07
2023-03-10T10:36:49.165Z,6.13
2023-03-10T10:37:49.158Z,6.22
2023-03-10T10:38:49.162Z,6.25
2023-03-10T10:39:49.171Z,6.29
2023-03-10T10:40:49.156Z,6.33
2023-03-10T10:41:49.160Z,6.35
2023-03-10T10:42:49.084Z,6.35
2023-03-10T10:43:49.132Z,6.35
2023-03-10T10:44:49.069Z,6.30
2023-03-10T10:45:49.074Z,6.22
2023-03-10T10:46:49.019Z,6.22
2023-03-10T10:47:49.018Z,6.28
2023-03-10T10:48:49.001Z,6.30
2023-03-10T10:49:49.037Z,6.25
2023-03-10T10:50:48.986Z,6.28
2023-03-10T10:51:48.969Z,6.32
2023-03-10T10:52:48.950Z,6.32
2023-03-10T10:53:48.963Z,6.28
2023-03-10T10:54:48.951Z,6.30
2023-03-10T10:55:48.930Z,6.32
2023-03-10T10:56:48.901Z,6.30
2023-03-10T10:57:48.884Z,6.26
2023-03-10T10:58:48.873Z,6.22
2023-03-10T10:59:48.885Z,6.18
2023-03-10T11:00:48.887Z,6.13
2023-03-10T11:01:48.834Z,6.14
2023-03-10T11:02:48.967Z,6.21
2023-03-10T11:03:48.816Z,6.21
2023-03-10T11:04:48.804Z,6.28
2023-03-10T11:05:48.867Z,6.30
2023-03-10T11:06:48.817Z,6.33
2023-03-10T11:07:48.781Z,6.38
2023-03-10T11:08:48.744Z,6.38
2023-03-10T11:09:48.769Z,6.38
2023-03-10T11:10:48.739Z,6.40
2023-03-10T11:11:48.727Z,6.40
2023-03-10T11:12:48.733Z,6.38
2023-03-10T11:13:48.672Z,6.41
2023-03-10T11:14:48.671Z,6.44
2023-03-10T11:15:48.712Z,6.47
2023-03-10T11:16:48.665Z,6.50
2023-03-10T11:17:48.615Z,6.53
2023-03-10T11:18:51.171Z,6.63
2023-03-10T11:19:48.632Z,6.73
2023-03-10T11:20:48.603Z,6.81
2023-03-10T11:21:50.218Z,6.86
2023-03-10T11:22:48.584Z,6.91
2023-03-10T11:23:48.581Z,7.04
2023-03-10T11:24:51.573Z,7.09
2023-03-10T11:25:48.545Z,7.12
2023-03-10T11:26:51.167Z,7.16
2023-03-10T11:27:48.493Z,7.17
2023-03-10T11:28:48.478Z,7.19
2023-03-10T11:29:48.550Z,7.04
2023-03-10T11:30:48.523Z,7.02
2023-03-10T11:31:48.510Z,6.97
2023-03-10T11:32:48.520Z,6.95
2023-03-10T11:33:48.466Z,7.05
2023-03-10T11:34:48.407Z,7.02
2023-03-10T11:42:59.437Z,6.91
2023-03-10T11:43:58.502Z,6.97
2023-03-10T11:44:58.485Z,7.01
2023-03-10T11:45:58.509Z,7.01
2023-03-10T11:46:58.472Z,6.97
2023-03-10T11:47:58.442Z,6.91
2023-03-10T11:48:58.466Z,6.89
2023-03-10T14:17:16.962Z,7.24
2023-03-10T14:18:17.934Z,7.23
2023-03-10T14:19:17.948Z,7.24
2023-03-10T14:20:17.915Z,7.24
2023-03-10T14:21:17.903Z,7.26
2023-03-10T14:22:17.879Z,7.23
2023-03-10T14:23:17.901Z,7.20
2023-03-10T14:24:17.861Z,7.23
2023-03-10T14:25:17.855Z,7.20
2023-03-10T14:26:17.826Z,7.23
2023-03-10T14:27:17.838Z,7.22
2023-03-10T14:28:19.472Z,7.22
2023-03-10T14:29:17.850Z,7.19
2023-03-10T14:30:17.776Z,7.20
2023-03-10T14:31:18.242Z,7.20
2023-03-10T14:32:17.785Z,7.19
2023-03-10T14:33:17.744Z,7.15
2023-03-10T14:34:17.733Z,7.13
2023-03-10T14:35:17.709Z,7.12
2023-03-10T14:36:17.753Z,7.08
2023-03-10T14:37:17.724Z,7.12
2023-03-10T14:38:17.720Z,7.12
2023-03-10T14:39:17.685Z,7.13
2023-03-10T14:40:17.641Z,7.12
2023-03-10T14:41:17.629Z,7.09
2023-03-10T14:42:17.621Z,7.08
2023-03-10T14:43:17.610Z,7.04
2023-03-10T14:44:17.601Z,7.02
2023-03-10T14:45:17.612Z,6.99
2023-03-10T14:46:17.789Z,6.94
2023-03-10T14:47:17.812Z,6.94
2023-03-10T14:48:17.776Z,6.91
2023-03-10T14:49:17.524Z,6.90
2023-03-10T14:50:17.510Z,6.91
2023-03-10T14:51:28.968Z,6.94
2023-03-10T14:52:17.492Z,6.95
2023-03-10T14:53:17.478Z,6.90
2023-03-10T14:54:17.452Z,6.90
2023-03-10T14:55:17.462Z,6.89
2023-03-10T14:56:17.429Z,6.81
2023-03-10T14:57:17.425Z,6.80
2023-03-10T14:58:17.392Z,6.76
2023-03-10T14:59:16.387Z,6.72
2023-03-10T15:00:17.397Z,6.66
2023-03-10T15:01:17.407Z,6.65
2023-03-10T15:02:17.352Z,6.61
2023-03-10T15:03:17.342Z,6.59
2023-03-10T15:04:17.432Z,6.63
2023-03-10T15:05:17.309Z,6.61
2023-03-10T15:06:17.328Z,6.62
2023-03-10T15:07:17.283Z,6.59
2023-03-10T15:08:17.358Z,6.59
2023-03-10T15:09:17.271Z,6.58
2023-03-10T15:10:17.248Z,6.56
2023-03-10T15:11:24.009Z,6.51
2023-03-10T15:12:17.220Z,6.48
2023-03-10T15:13:17.197Z,6.46
2023-03-10T15:14:17.181Z,6.43
2023-03-10T15:15:17.189Z,6.43
2023-03-10T15:16:17.354Z,6.40
2023-03-10T15:17:17.164Z,6.35
2023-03-10T15:18:17.154Z,6.33
2023-03-10T15:19:17.139Z,6.26
2023-03-10T15:20:17.149Z,6.26
2023-03-10T15:21:17.101Z,6.22
2023-03-10T15:22:17.133Z,6.22
2023-03-10T15:23:19.204Z,6.22
2023-03-10T15:24:17.061Z,6.21
2023-03-10T15:25:17.064Z,6.18
2023-03-10T15:26:17.036Z,6.14
2023-03-10T15:27:17.021Z,6.07
2023-03-10T15:28:17.009Z,6.04
2023-03-10T15:29:17.017Z,6.03
2023-03-10T15:30:17.018Z,6.01
2023-03-10T15:31:17.031Z,6.01
2023-03-10T15:32:16.984Z,6.04
2023-03-10T15:33:16.940Z,6.01
2023-03-10T15:34:18.790Z,6.03
2023-03-10T15:35:16.918Z,6.00
2023-03-10T15:36:16.969Z,6.01
2023-03-10T15:37:16.880Z,5.95
2023-03-10T15:38:16.872Z,5.96
2023-03-10T15:39:30.705Z,5.93
2023-03-10T15:40:16.850Z,5.88
2023-03-10T15:41:16.862Z,5.88
2023-03-10T15:42:16.836Z,5.85
2023-03-10T15:43:16.805Z,5.78
2023-03-10T15:44:16.817Z,5.75
2023-03-10T15:45:16.766Z,5.75
2023-03-10T15:46:16.796Z,5.73
2023-03-10T15:47:16.756Z,5.74
2023-03-10T15:48:16.742Z,5.75
2023-03-10T15:49:16.753Z,5.75
2023-03-10T15:50:16.725Z,5.74
2023-03-10T15:51:16.697Z,5.74
2023-03-10T15:52:16.686Z,5.71
2023-03-10T15:53:16.677Z,5.68
2023-03-10T15:54:16.665Z,5.67
2023-03-10T15:55:16.672Z,5.66
2023-03-10T15:56:16.644Z,5.59
2023-03-10T15:57:16.630Z,5.55
2023-03-10T15:58:16.618Z,5.52
2023-03-10T15:59:16.595Z,5.50
2023-03-10T16:00:16.692Z,5.49
2023-03-10T16:01:16.617Z,5.49
2023-03-10T16:02:16.572Z,5.46
2023-03-10T16:03:18.377Z,5.45
2023-03-10T16:04:16.599Z,5.43
2023-03-10T16:05:16.511Z,5.40
2023-03-10T16:06:16.509Z,5.40
2023-03-10T16:07:16.486Z,5.40
2023-03-10T16:08:16.483Z,5.37
2023-03-10T16:09:16.470Z,5.34
2023-03-10T16:10:16.450Z,5.32
2023-03-10T16:11:16.430Z,5.32
2023-03-10T16:12:16.415Z,5.31
2023-03-10T16:13:16.406Z,5.30
2023-03-10T16:14:16.389Z,5.28
2023-03-10T16:15:18.220Z,5.25
2023-03-10T16:16:16.386Z,5.20
2023-03-10T16:17:16.384Z,5.22
2023-03-10T16:18:16.335Z,5.14
2023-03-10T16:19:16.336Z,5.07
2023-03-10T16:20:16.293Z,4.98
2023-03-10T16:21:18.065Z,4.92
2023-03-10T16:22:16.271Z,4.89
2023-03-10T16:23:16.316Z,4.88
2023-03-10T16:24:16.261Z,4.84
2023-03-10T16:25:16.285Z,4.83
2023-03-10T16:26:16.250Z,4.84
2023-03-10T16:27:16.260Z,4.83
2023-03-10T16:28:16.204Z,4.84
2023-03-10T16:29:16.194Z,4.76
2023-03-10T16:30:16.369Z,4.69
2023-03-10T16:31:16.289Z,4.64
2023-03-10T16:32:16.196Z,4.61
2023-03-10T16:33:17.301Z,4.57
2023-03-10T16:34:16.114Z,4.54
2023-03-10T16:35:16.110Z,4.42
2023-03-10T16:36:16.156Z,4.40
2023-03-10T16:37:16.110Z,4.37
2023-03-10T16:38:16.056Z,4.37
2023-03-10T16:39:17.805Z,4.34
2023-03-10T16:40:16.047Z,4.36
2023-03-10T16:41:16.164Z,4.29
2023-03-10T16:42:16.067Z,4.19
2023-03-10T16:43:16.137Z,4.18
2023-03-10T16:44:16.013Z,4.15
2023-03-10T16:45:15.978Z,4.16
2023-03-10T16:46:15.981Z,4.14
2023-03-10T16:47:17.995Z,4.08
2023-03-10T16:48:15.936Z,4.04
2023-03-10T16:49:15.930Z,3.97
2023-03-10T16:50:15.927Z,3.89
2023-03-10T16:51:15.915Z,3.88